createdAt,value
2023-01-08T00:02:25.936Z,7.68
2023-01-08T00:04:57.461Z,7.68
2023-01-08T00:07:29.427Z,7.68
2023-01-08T00:10:00.984Z,7.63
2023-01-08T00:12:32.936Z,7.64
2023-01-08T00:15:04.514Z,7.61
2023-01-08T00:17:36.402Z,7.58
2023-01-08T00:20:07.923Z,7.56
2023-01-08T00:22:39.810Z,7.53
2023-01-08T00:25:11.329Z,7.52
2023-01-08T00:27:43.209Z,7.50
2023-01-08T00:30:14.857Z,7.50
2023-01-08T00:32:46.593Z,7.45
2023-01-08T00:35:18.390Z,7.46
2023-01-08T00:37:49.921Z,7.36
2023-01-08T00:40:21.539Z,7.36
2023-01-08T00:42:53.083Z,7.35
2023-01-08T00:45:25.055Z,7.33
2023-01-08T00:47:56.657Z,7.26
2023-01-08T00:50:28.513Z,7.26
2023-01-08T00:53:00.828Z,7.22
2023-01-08T00:55:32.734Z,6.44
2023-01-08T00:58:04.295Z,7.13
2023-01-08T01:00:36.159Z,7.07
2023-01-08T01:03:07.730Z,7.08
2023-01-08T01:05:39.715Z,7.05
2023-01-08T01:08:11.306Z,7.03
2023-01-08T01:10:43.164Z,6.98
2023-01-08T01:13:14.735Z,6.98
2023-01-08T01:15:46.556Z,6.97
2023-01-08T01:18:18.139Z,6.97
2023-01-08T01:20:50.113Z,6.91
2023-01-08T01:23:21.728Z,6.89
2023-01-08T01:25:54.938Z,6.89
2023-01-08T01:28:26.531Z,6.86
2023-01-08T01:30:58.558Z,6.80
2023-01-08T01:33:30.194Z,6.82
2023-01-08T01:36:02.318Z,6.80
2023-01-08T01:38:33.886Z,6.78
2023-01-08T01:41:05.664Z,6.73
2023-01-08T01:43:37.229Z,6.68
2023-01-08T01:46:09.184Z,6.64
2023-01-08T01:48:40.768Z,6.65
2023-01-08T01:51:12.684Z,6.61
2023-01-08T01:53:44.229Z,6.59
2023-01-08T01:56:16.127Z,6.54
2023-01-08T01:58:47.657Z,6.52
2023-01-08T02:01:19.783Z,6.49
2023-01-08T02:03:51.753Z,6.45
2023-01-08T02:06:23.328Z,6.37
2023-01-08T02:08:55.069Z,6.40
2023-01-08T02:11:26.661Z,6.34
2023-01-08T02:13:58.501Z,5.61
2023-01-08T02:16:30.222Z,6.28
2023-01-08T02:19:02.139Z,6.25
2023-01-08T02:21:33.706Z,6.21
2023-01-08T02:24:05.791Z,6.17
2023-01-08T02:26:37.318Z,6.12
2023-01-08T02:29:09.156Z,6.08
2023-01-08T02:31:40.808Z,6.04
2023-01-08T02:34:12.833Z,5.99
2023-01-08T02:36:44.464Z,5.98
2023-01-08T02:39:16.814Z,5.99
2023-01-08T02:41:48.516Z,5.96
2023-01-08T02:44:20.482Z,5.91
2023-01-08T02:46:52.067Z,5.88
2023-01-08T02:49:23.932Z,5.90
2023-01-08T02:51:55.439Z,5.84
2023-01-08T02:54:27.485Z,5.84
2023-01-08T02:56:59.016Z,5.84
2023-01-08T02:59:30.949Z,5.83
2023-01-08T03:02:02.518Z,5.80
2023-01-08T03:04:34.599Z,5.81
2023-01-08T03:07:06.141Z,5.79
2023-01-08T03:09:38.077Z,5.79
2023-01-08T03:12:09.969Z,5.71
2023-01-08T03:14:41.827Z,5.74
2023-01-08T03:17:13.417Z,5.77
2023-01-08T03:19:45.383Z,5.83
2023-01-08T03:22:16.942Z,5.84
2023-01-08T03:24:48.917Z,5.86
2023-01-08T03:27:20.445Z,5.79
2023-01-08T03:29:52.405Z,5.83
2023-01-08T03:32:23.926Z,5.83
2023-01-08T03:34:55.497Z,5.79
2023-01-08T03:37:27.128Z,5.79
2023-01-08T03:39:59.121Z,5.79
2023-01-08T03:42:30.686Z,5.78
2023-01-08T03:45:02.614Z,5.75
2023-01-08T03:47:34.135Z,5.72
2023-01-08T03:50:05.973Z,5.69
2023-01-08T03:52:37.528Z,5.68
2023-01-08T03:55:09.488Z,5.65
2023-01-08T03:57:41.108Z,5.68
2023-01-08T04:00:12.977Z,5.69
2023-01-08T04:02:44.599Z,5.68
2023-01-08T04:05:16.552Z,5.69
2023-01-08T04:07:48.097Z,5.69
2023-01-08T04:10:19.955Z,5.73
2023-01-08T04:12:51.561Z,5.73
2023-01-08T04:15:23.457Z,5.77
2023-01-08T04:17:55.014Z,5.76
2023-01-08T04:20:26.891Z,5.72
2023-01-08T04:22:58.413Z,5.68
2023-01-08T04:25:30.326Z,5.68
2023-01-08T04:28:01.905Z,5.70
2023-01-08T04:30:33.730Z,5.68
2023-01-08T04:33:05.617Z,5.65
2023-01-08T04:35:37.145Z,5.63
2023-01-08T04:38:10.886Z,5.63
2023-01-08T04:40:43.104Z,5.63
2023-01-08T04:43:15.037Z,5.62
2023-01-08T04:45:46.610Z,5.61
2023-01-08T04:48:18.491Z,5.56
2023-01-08T04:50:51.174Z,5.55
2023-01-08T04:53:23.027Z,5.53
2023-01-08T04:55:54.724Z,5.55
2023-01-08T04:58:26.813Z,5.55
2023-01-08T05:00:58.385Z,5.57
2023-01-08T05:03:30.351Z,5.61
2023-01-08T05:06:01.896Z,5.61
2023-01-08T05:08:33.714Z,5.57
2023-01-08T05:11:05.227Z,5.63
2023-01-08T05:13:37.194Z,5.67
2023-01-08T05:16:08.800Z,5.65
2023-01-08T05:18:40.736Z,5.73
2023-01-08T05:21:13.274Z,5.75
2023-01-08T05:23:45.212Z,5.74
2023-01-08T05:26:16.880Z,5.70
2023-01-08T05:28:48.776Z,5.71
2023-01-08T05:31:20.437Z,5.67
2023-01-08T05:33:52.421Z,5.67
2023-01-08T05:36:23.949Z,5.68
2023-01-08T05:38:55.893Z,5.70
2023-01-08T05:41:27.455Z,5.71
2023-01-08T05:43:59.377Z,5.74
2023-01-08T05:46:30.955Z,5.78
2023-01-08T05:49:02.924Z,5.85
2023-01-08T05:51:34.492Z,5.82
2023-01-08T05:54:06.364Z,5.88
2023-01-08T05:56:38.175Z,5.90
2023-01-08T05:59:10.192Z,5.96
2023-01-08T06:01:41.792Z,5.97
2023-01-08T06:04:13.917Z,5.96
2023-01-08T06:06:45.534Z,5.95
2023-01-08T06:09:17.365Z,5.93
2023-01-08T06:11:48.959Z,5.93
2023-01-08T06:14:20.697Z,5.94
2023-01-08T06:16:52.248Z,5.95
2023-01-08T06:19:24.504Z,5.99
2023-01-08T06:21:56.058Z,6.05
2023-01-08T06:24:27.980Z,6.13
2023-01-08T06:26:59.517Z,6.14
2023-01-08T06:29:31.485Z,6.19
2023-01-08T06:32:03.069Z,6.28
2023-01-08T06:34:34.979Z,6.32
2023-01-08T06:37:06.549Z,6.34
2023-01-08T06:39:38.256Z,6.40
2023-01-08T06:42:09.851Z,6.48
2023-01-08T06:44:41.821Z,6.50
2023-01-08T06:47:13.363Z,6.51
2023-01-08T06:49:45.407Z,6.53
2023-01-08T06:52:16.980Z,6.61
2023-01-08T06:54:48.983Z,6.67
2023-01-08T06:57:20.584Z,6.71
2023-01-08T06:59:52.600Z,6.79
2023-01-08T07:02:25.661Z,6.81
2023-01-08T07:04:57.841Z,6.86
2023-01-08T07:07:29.382Z,6.90
2023-01-08T07:10:01.291Z,6.95
2023-01-08T07:12:32.861Z,6.95
2023-01-08T07:15:04.422Z,6.94
2023-01-08T07:17:35.975Z,6.95
2023-01-08T07:20:07.927Z,6.99
2023-01-08T07:22:39.469Z,6.99
2023-01-08T07:25:11.468Z,7.05
2023-01-08T07:27:43.153Z,7.02
2023-01-08T07:30:28.735Z,7.03
2023-01-08T07:33:00.674Z,7.02
2023-01-08T07:35:32.801Z,6.98
2023-01-08T07:38:04.409Z,6.95
2023-01-08T07:40:38.501Z,6.91
2023-01-08T07:43:12.623Z,6.90
2023-01-08T07:45:44.459Z,6.86
2023-01-08T07:48:16.502Z,6.85
2023-01-08T07:50:48.677Z,6.84
2023-01-08T07:53:20.336Z,6.86
2023-01-08T07:55:52.424Z,6.81
2023-01-08T07:58:23.948Z,6.93
2023-01-08T08:00:57.697Z,6.93
2023-01-08T08:03:30.632Z,6.89
2023-01-08T08:06:02.565Z,6.92
2023-01-08T08:08:34.347Z,6.88
2023-01-08T08:11:06.265Z,6.96
2023-01-08T08:13:42.489Z,6.96
2023-01-08T08:16:14.536Z,6.90
2023-01-08T08:18:46.193Z,6.83
2023-01-08T08:21:18.297Z,6.87
2023-01-08T08:23:49.870Z,6.89
2023-01-08T08:26:21.853Z,6.91
2023-01-08T08:28:53.399Z,6.92
2023-01-08T08:31:25.307Z,6.92
2023-01-08T08:33:56.899Z,6.96
2023-01-08T08:36:28.781Z,6.96
2023-01-08T08:39:00.394Z,7.02
2023-01-08T08:41:32.330Z,7.05
2023-01-08T08:44:03.855Z,7.12
2023-01-08T08:46:35.785Z,7.10
2023-01-08T08:49:07.443Z,7.13
2023-01-08T08:51:39.355Z,7.19
2023-01-08T08:54:10.901Z,7.25
2023-01-08T08:56:42.532Z,7.24
2023-01-08T08:59:14.123Z,7.18
2023-01-08T09:01:45.992Z,7.32
2023-01-08T09:04:17.918Z,7.38
2023-01-08T09:06:49.466Z,7.46
2023-01-08T09:09:21.332Z,7.57
2023-01-08T09:11:52.900Z,7.71
2023-01-08T09:14:24.493Z,7.86
2023-01-08T09:16:56.056Z,7.86
2023-01-08T09:19:27.975Z,7.70
2023-01-08T09:21:59.505Z,7.75
2023-01-08T09:24:34.604Z,7.72
2023-01-08T09:27:06.168Z,7.71
2023-01-08T09:29:38.046Z,7.74
2023-01-08T09:32:09.610Z,7.78
2023-01-08T09:34:41.547Z,7.78
2023-01-08T09:37:13.053Z,7.73
2023-01-08T09:39:51.029Z,7.71
2023-01-08T09:42:25.846Z,7.68
2023-01-08T09:44:57.865Z,7.68
2023-01-08T09:47:29.553Z,7.64
2023-01-08T09:50:01.607Z,7.61
2023-01-08T09:52:33.211Z,7.68
2023-01-08T09:55:05.065Z,7.60
2023-01-08T09:57:36.920Z,7.61
2023-01-08T10:00:08.452Z,7.66
2023-01-08T10:02:40.513Z,7.80
2023-01-08T10:05:12.215Z,7.74
2023-01-08T10:07:44.166Z,7.76
2023-01-08T10:10:15.693Z,7.71
2023-01-08T10:12:47.624Z,7.75
2023-01-08T10:15:19.157Z,7.72
2023-01-08T10:17:51.439Z,7.59
2023-01-08T10:20:23.605Z,7.50
2023-01-08T10:22:55.300Z,7.47
2023-01-08T10:25:27.325Z,7.51
2023-01-08T10:27:59.112Z,7.44
2023-01-08T10:30:31.027Z,7.38
2023-01-08T10:33:02.547Z,6.35
2023-01-08T10:35:34.426Z,7.40
2023-01-08T10:38:05.999Z,7.46
2023-01-08T10:40:37.926Z,7.44
2023-01-08T10:43:09.507Z,7.42
2023-01-08T10:45:42.388Z,7.40
2023-01-08T10:48:13.901Z,6.95
2023-01-08T10:50:45.788Z,7.71
2023-01-08T10:53:17.310Z,7.74
2023-01-08T10:55:48.837Z,7.62
2023-01-08T10:58:20.389Z,7.72
2023-01-08T11:00:51.932Z,7.52
2023-01-08T11:03:23.454Z,7.65
2023-01-08T11:05:55.319Z,7.59
2023-01-08T11:08:26.917Z,7.67
2023-01-08T11:10:58.789Z,7.68
2023-01-08T11:13:30.324Z,7.94
2023-01-08T11:16:01.980Z,8.12
2023-01-08T11:18:33.593Z,8.06
2023-01-08T11:21:05.137Z,8.07
2023-01-08T11:23:36.670Z,7.89
2023-01-08T11:26:08.318Z,7.88
2023-01-08T11:28:39.919Z,7.80
2023-01-08T11:31:11.844Z,7.88
2023-01-08T11:33:43.502Z,7.84
2023-01-08T11:36:15.546Z,7.87
2023-01-08T11:38:47.078Z,7.77
2023-01-08T11:41:18.869Z,7.68
2023-01-08T11:43:50.494Z,7.72
2023-01-08T11:46:22.492Z,6.66
2023-01-08T11:48:54.035Z,7.74
2023-01-08T11:51:26.041Z,7.92
2023-01-08T11:53:59.471Z,7.89
2023-01-08T11:56:31.372Z,7.94
2023-01-08T11:59:02.947Z,7.98
2023-01-08T12:01:34.725Z,8.08
2023-01-08T12:04:06.519Z,8.09
2023-01-08T12:06:38.015Z,8.10
2023-01-08T12:09:09.908Z,8.12
2023-01-08T12:11:41.459Z,8.19
2023-01-08T12:14:13.017Z,8.23
2023-01-08T12:16:44.599Z,8.21
2023-01-08T12:19:16.492Z,8.20
2023-01-08T12:21:48.015Z,8.21
2023-01-08T12:24:19.589Z,8.17
2023-01-08T12:26:51.181Z,8.34
2023-01-08T12:29:23.060Z,8.37
2023-01-08T12:32:02.607Z,8.38
2023-01-08T12:34:36.337Z,8.37
2023-01-08T12:37:07.920Z,8.47
2023-01-08T12:39:39.881Z,8.29
2023-01-08T12:42:11.453Z,8.46
2023-01-08T12:44:42.980Z,8.43
2023-01-08T12:47:14.496Z,8.38
2023-01-08T12:49:47.474Z,8.34
2023-01-08T12:52:19.436Z,8.39
2023-01-08T12:54:51.312Z,8.42
2023-01-08T12:57:22.842Z,8.48
2023-01-08T12:59:54.870Z,8.42
2023-01-08T13:02:26.500Z,8.31
2023-01-08T13:04:58.470Z,8.31
2023-01-08T13:07:32.808Z,8.23
2023-01-08T13:10:04.701Z,8.32
2023-01-08T13:12:36.245Z,8.26
2023-01-08T13:15:08.151Z,8.22
2023-01-08T13:17:40.706Z,8.25
2023-01-08T13:20:13.961Z,8.23
2023-01-08T13:22:45.508Z,8.30
2023-01-08T13:25:17.160Z,8.23
2023-01-08T13:27:48.670Z,8.19
2023-01-08T13:30:20.496Z,8.22
2023-01-08T13:32:52.139Z,8.08
2023-01-08T13:35:24.010Z,8.05
2023-01-08T13:37:55.523Z,8.06
2023-01-08T13:40:27.526Z,8.00
2023-01-08T13:42:59.118Z,7.95
2023-01-08T13:45:30.677Z,7.93
2023-01-08T13:48:02.328Z,7.86
2023-01-08T13:50:35.460Z,7.90
2023-01-08T13:53:07.347Z,7.79
2023-01-08T13:55:39.177Z,7.76
2023-01-08T13:58:10.730Z,7.73
2023-01-08T14:00:42.280Z,7.72
2023-01-08T14:03:13.838Z,7.70
2023-01-08T14:05:45.888Z,7.76
2023-01-08T14:08:17.430Z,7.64
2023-01-08T14:10:49.277Z,7.69
2023-01-08T14:13:21.146Z,7.61
2023-01-08T14:15:52.671Z,7.64
2023-01-08T14:18:24.645Z,7.60
2023-01-08T14:20:56.228Z,7.62
2023-01-08T14:23:28.000Z,7.67
2023-01-08T14:25:59.565Z,7.61
2023-01-08T14:28:31.147Z,7.62
2023-01-08T14:31:02.802Z,7.61
2023-01-08T14:33:34.353Z,7.52
2023-01-08T14:36:05.876Z,7.49
2023-01-08T14:38:37.444Z,7.46
2023-01-08T14:41:08.973Z,7.46
2023-01-08T14:43:40.508Z,7.49
2023-01-08T14:46:12.090Z,7.50
2023-01-08T14:48:43.798Z,7.44
2023-01-08T14:51:17.447Z,7.42
2023-01-08T14:53:48.980Z,7.44
2023-01-08T14:56:20.562Z,7.41
2023-01-08T14:58:52.904Z,7.41
2023-01-08T15:01:24.590Z,7.42
2023-01-08T15:03:56.191Z,7.38
2023-01-08T15:06:27.730Z,7.30
2023-01-08T15:09:00.103Z,7.32
2023-01-08T15:11:32.026Z,7.35
2023-01-08T15:14:03.947Z,7.23
2023-01-08T15:16:38.039Z,7.27
2023-01-08T15:19:09.637Z,6.89
2023-01-08T15:21:41.198Z,7.27
2023-01-08T15:24:13.067Z,7.21
2023-01-08T15:26:44.591Z,7.22
2023-01-08T15:29:16.145Z,7.21
2023-01-08T15:31:47.760Z,7.21
2023-01-08T15:34:19.649Z,7.20
2023-01-08T15:36:51.250Z,7.17
2023-01-08T15:39:23.140Z,7.04
2023-01-08T15:42:13.224Z,7.14
2023-01-08T15:44:45.275Z,7.17
2023-01-08T15:47:17.262Z,7.18
2023-01-08T15:49:48.808Z,7.17
2023-01-08T15:52:20.755Z,7.17
2023-01-08T15:54:52.280Z,7.19
2023-01-08T15:57:24.176Z,7.20
2023-01-08T15:59:55.852Z,7.20
2023-01-08T16:02:27.904Z,7.19
2023-01-08T16:04:59.490Z,7.22
2023-01-08T16:07:31.432Z,7.24
2023-01-08T16:10:02.955Z,7.26
2023-01-08T16:12:34.872Z,7.22
2023-01-08T16:15:09.591Z,7.25
2023-01-08T16:17:41.243Z,7.25
2023-01-08T16:20:12.883Z,7.28
2023-01-08T16:22:44.997Z,7.29
2023-01-08T16:25:16.523Z,7.30
2023-01-08T16:27:48.371Z,7.31
2023-01-08T16:30:19.934Z,7.31
2023-01-08T16:32:51.570Z,7.32
2023-01-08T16:35:23.138Z,7.29
2023-01-08T16:37:55.954Z,7.29
2023-01-08T16:40:27.517Z,7.32
2023-01-08T16:42:59.387Z,7.28
2023-01-08T16:45:30.913Z,7.29
2023-01-08T16:48:03.360Z,7.21
2023-01-08T16:50:34.892Z,7.25
2023-01-08T16:53:06.854Z,7.23
2023-01-08T16:55:38.426Z,7.25
2023-01-08T16:58:10.089Z,7.26
2023-01-08T17:00:41.714Z,7.22
2023-01-08T17:03:13.567Z,7.21
2023-01-08T17:05:45.093Z,7.24
2023-01-08T17:08:17.298Z,7.20
2023-01-08T17:10:49.217Z,7.21
2023-01-08T17:13:20.807Z,7.24
2023-01-08T17:15:53.414Z,7.26
2023-01-08T17:18:25.057Z,7.21
2023-01-08T17:20:57.011Z,7.18
2023-01-08T17:23:28.977Z,7.13
2023-01-08T17:26:00.831Z,7.07
2023-01-08T17:28:32.433Z,6.99
2023-01-08T17:31:04.618Z,6.95
2023-01-08T17:33:36.183Z,6.90
2023-01-08T17:36:07.699Z,6.90
2023-01-08T17:38:39.237Z,6.86
2023-01-08T17:41:10.984Z,6.82
2023-01-08T17:43:42.527Z,6.78
2023-01-08T17:46:14.367Z,6.78
2023-01-08T17:48:46.023Z,6.78
2023-01-08T17:51:17.863Z,6.79
2023-01-08T17:53:49.854Z,6.79
2023-01-08T17:56:21.863Z,6.75
2023-01-08T17:58:53.471Z,6.72
2023-01-08T18:01:25.371Z,6.74
2023-01-08T18:03:57.043Z,6.76
2023-01-08T18:06:28.655Z,6.76
2023-01-08T18:09:00.278Z,6.78
2023-01-08T18:11:33.460Z,6.80
2023-01-08T18:14:04.969Z,6.81
2023-01-08T18:16:36.712Z,6.85
2023-01-08T18:19:08.343Z,6.86
2023-01-08T18:21:40.273Z,6.88
2023-01-08T18:24:11.827Z,6.93
2023-01-08T18:26:43.719Z,6.91
2023-01-08T18:29:15.233Z,6.90
2023-01-08T18:31:47.131Z,6.90
2023-01-08T18:34:18.644Z,6.93
2023-01-08T18:36:50.629Z,6.92
2023-01-08T18:39:22.488Z,6.90
2023-01-08T18:42:12.899Z,6.89
2023-01-08T18:44:44.485Z,6.84
2023-01-08T18:47:16.494Z,6.77
2023-01-08T18:49:48.164Z,6.75
2023-01-08T18:52:19.761Z,6.72
2023-01-08T18:54:51.369Z,6.70
2023-01-08T18:57:23.223Z,6.65
2023-01-08T18:59:54.878Z,6.64
2023-01-08T19:02:45.107Z,6.59
2023-01-08T19:05:17.842Z,6.55
2023-01-08T19:07:49.407Z,6.49
2023-01-08T19:10:21.806Z,6.45
2023-01-08T19:12:53.497Z,6.41
2023-01-08T19:15:25.897Z,6.42
2023-01-08T19:17:57.436Z,6.40
2023-01-08T19:20:29.294Z,6.43
2023-01-08T19:23:00.883Z,6.41
2023-01-08T19:25:32.655Z,6.42
2023-01-08T19:28:04.208Z,6.39
2023-01-08T19:30:36.128Z,6.42
2023-01-08T19:33:07.656Z,6.43
2023-01-08T19:35:39.550Z,6.40
2023-01-08T19:38:11.190Z,6.43
2023-01-08T19:40:43.022Z,6.45
2023-01-08T19:43:33.488Z,6.46
2023-01-08T19:46:06.186Z,6.44
2023-01-08T19:48:37.845Z,6.45
2023-01-08T19:51:09.650Z,6.40
2023-01-08T19:53:41.248Z,6.39
2023-01-08T19:56:13.185Z,6.39
2023-01-08T19:58:44.746Z,6.35
2023-01-08T20:01:16.816Z,6.30
2023-01-08T20:03:48.442Z,6.26
2023-01-08T20:06:20.520Z,6.26
2023-01-08T20:08:53.294Z,6.23
2023-01-08T20:11:25.177Z,6.20
2023-01-08T20:14:00.269Z,6.15
2023-01-08T20:16:32.370Z,6.08
2023-01-08T20:19:04.641Z,6.04
2023-01-08T20:21:36.694Z,6.01
2023-01-08T20:24:13.623Z,5.99
2023-01-08T20:26:45.796Z,5.94
2023-01-08T20:29:18.124Z,5.93
2023-01-08T20:31:50.103Z,5.87
2023-01-08T20:34:21.678Z,5.83
2023-01-08T20:36:53.708Z,5.79
2023-01-08T20:39:25.270Z,5.72
2023-01-08T20:42:04.380Z,5.69
2023-01-08T20:44:36.426Z,5.69
2023-01-08T20:47:08.297Z,5.69
2023-01-08T20:49:39.959Z,5.67
2023-01-08T20:52:11.585Z,5.62
2023-01-08T20:54:43.737Z,5.65
2023-01-08T20:57:15.405Z,5.67
2023-01-08T20:59:47.028Z,5.70
2023-01-08T21:02:19.745Z,5.75
2023-01-08T21:04:51.821Z,5.76
2023-01-08T21:07:23.406Z,5.82
2023-01-08T21:09:54.980Z,5.85
2023-01-08T21:12:26.505Z,5.86
2023-01-08T21:14:59.177Z,5.90
2023-01-08T21:17:30.726Z,5.90
2023-01-08T21:20:03.969Z,5.87
2023-01-08T21:22:35.582Z,5.93
2023-01-08T21:25:07.166Z,5.97
2023-01-08T21:27:38.775Z,6.01
2023-01-08T21:30:10.353Z,5.96
2023-01-08T21:32:41.872Z,6.01
2023-01-08T21:35:13.489Z,6.01
2023-01-08T21:37:45.024Z,6.03
2023-01-08T21:40:16.583Z,6.02
2023-01-08T21:43:06.643Z,6.03
2023-01-08T21:45:38.213Z,6.06
2023-01-08T21:48:09.930Z,6.02
2023-01-08T21:50:41.874Z,6.10
2023-01-08T21:53:33.198Z,6.07
2023-01-08T21:56:05.754Z,6.09
2023-01-08T21:58:38.339Z,6.07
2023-01-08T22:01:10.140Z,6.15
2023-01-08T22:03:42.229Z,6.10
2023-01-08T22:06:13.810Z,6.08
2023-01-08T22:08:45.439Z,6.07
2023-01-08T22:11:16.988Z,6.15
2023-01-08T22:13:48.527Z,6.16
2023-01-08T22:16:20.095Z,6.16
2023-01-08T22:18:52.068Z,6.10
2023-01-08T22:21:23.613Z,6.04
2023-01-08T22:23:55.151Z,6.07
2023-01-08T22:26:26.789Z,6.05
2023-01-08T22:28:58.320Z,6.01
2023-01-08T22:31:29.929Z,6.02
2023-01-08T22:34:01.535Z,5.98
2023-01-08T22:36:33.120Z,5.92
2023-01-08T22:39:04.681Z,5.89
2023-01-08T22:41:36.229Z,5.86
2023-01-08T22:44:09.406Z,5.75
2023-01-08T22:46:40.940Z,5.72
2023-01-08T22:49:13.332Z,5.67
2023-01-08T22:51:45.004Z,5.63
2023-01-08T22:54:18.375Z,5.61
2023-01-08T22:56:49.915Z,5.59
2023-01-08T22:59:21.794Z,5.59
2023-01-08T23:01:53.356Z,5.52
2023-01-08T23:04:25.322Z,5.44
2023-01-08T23:06:56.918Z,5.38
2023-01-08T23:09:28.995Z,5.31
2023-01-08T23:12:00.571Z,5.25
2023-01-08T23:14:32.466Z,5.23
2023-01-08T23:17:04.046Z,5.17
2023-01-08T23:19:35.954Z,5.14
2023-01-08T23:22:07.472Z,5.10
2023-01-08T23:24:39.371Z,5.06
2023-01-08T23:27:10.939Z,5.01
2023-01-08T23:29:42.900Z,4.94
2023-01-08T23:32:14.505Z,4.88
2023-01-08T23:34:46.060Z,4.80
2023-01-08T23:37:17.838Z,4.77
2023-01-08T23:39:49.425Z,4.75
2023-01-08T23:42:21.120Z,4.72
2023-01-08T23:44:53.048Z,4.67
2023-01-08T23:47:24.598Z,4.65
2023-01-08T23:49:56.156Z,4.64
2023-01-08T23:52:27.745Z,4.60
2023-01-08T23:54:59.318Z,4.60
2023-01-08T23:57:30.884Z,4.58
